메인 페이지
METAR-TAF:

METAR-TAF

공항 :

보드룸, 터키

위도: 37-14-53N, 경도: 027-40-55E, 고도: 6m

현재 날씨관측

예보는 42분 전, 18:50시(UTC)에 발표되었습니다.
남남동3kt
온도 18°C
습도 77%
기압 1014 hPa
시정 10km 이상
1500m 미만 상공 구름 및 적란운 없음

METAR: LTFE 251850Z 15003KT CAVOK 18/14 Q1014 NOSIG RMK RWY10 VRB02KT

시각: 22:32 (19:32 UTC)

예보

예보는 2 시간 52분 전, 16:40시(UTC)에 발표되었습니다.
예보 대상 시간: 25일 18시부터 26일 18시까지 (UTC)
여러 방향의 바람 2kt
시정 10km 이상
1500m 미만 상공 구름 및 적란운 없음
전환 중
26일 00시부터 26일 03시까지 (UTC)
고도 3500ft 상공 구름 조금
고도 20000ft 상공 구름 많음
전환 중
26일 09시부터 26일 11시까지 (UTC)
12kt
전환 중
26일 15시부터 26일 17시까지 (UTC)
여러 방향의 바람 2kt

TAF: LTFE 251640Z 2518/2618 VRB02KT CAVOK BECMG 2600/2603 FEW035 BKN200 BECMG 2609/2611 26012KT BECMG 2615/2617 VRB02KT

4,000개 이상의 공항 관측 자료 및 예보 (METAR 및 TAF 보고).

지도상에서 검색 가능한 기상관측소가 노란 점과 빨간 점으로 표시되어 있습니다.

기상관측소 명을 보려면 표시 위로 마우스를 이동하세요.

날씨 관측과 예보를 보려면 클릭하세요.

지도 변경 : 확대하려면 엑스 표시가 있는 녹색 버튼, 축소하려면 빼기 표시가 있는 녹색 버튼, 다음 페이지의 지도를 보려면 녹색 화살표를 클릭하세요.


METAR-TAF: